Gladstone, Michigan
Current Conditions -  °F | °C
As of 1:55 PM on Thursday 30 Oct 2014 (Local Time) from KESC Reporting Station
Overcast Overcast  
Wind Chill: 41°   Ceiling: 2900
Heat Index: 45°   Visibility: 10mi
Dew Point: 34°   Wind: 6mph
Humidity: 66%   Direction: 310°NW
Pressure: 30.01"   Gusts: NA
Location:  45.85°N, 87.02°W
Report Text: KESC 301755Z AUTO 31005KT 10SM OVC029 07/01 A3001 RMK AO1 10070 20040 57010
Loading
Personal Weather Stations






























Interactive Weather Map
Tropical Storm Tracking
New forecast layout! Learn more

10-Day Weather Forecast

Advertisements
Track Severe Weather on mobile